Time;durP1;ratioP1;P1;durP2;ratioP2;P2;SDS_P1;SDS_P2;PMS_P1;PMS_P2;Temp;Humidity;BMP_temperature;BMP_pressure;BME280_temperature;BME280_humidity;BME280_pressure;Samples;Min_cycle;Max_cycle;Signal;HPM_P1;HPM_P2
2023/07/20 00:01:14;;;;;;;4.22;1.55;;;;;;;18.06;100.00;97336.28;5138688;28;20055;-63
2023/07/20 00:03:40;;;;;;;4.25;1.90;;;;;;;18.03;100.00;97315.06;5138873;28;20075;-62
2023/07/20 00:06:07;;;;;;;3.38;1.55;;;;;;;18.02;100.00;97325.34;5138491;27;20047;-62
2023/07/20 00:08:33;;;;;;;2.47;1.52;;;;;;;17.99;100.00;97315.16;5138987;27;20057;-63
2023/07/20 00:10:59;;;;;;;3.75;1.50;;;;;;;18.02;100.00;97305.16;5138622;28;20050;-63
2023/07/20 00:13:25;;;;;;;6.00;1.48;;;;;;;17.99;100.00;97312.41;5138663;28;20061;-62
2023/07/20 00:15:51;;;;;;;4.03;1.80;;;;;;;18.01;100.00;97323.03;5138655;28;20044;-61
2023/07/20 00:18:21;;;;;;;2.15;1.27;;;;;;;17.99;100.00;97314.41;5138284;28;20416;-62
2023/07/20 00:20:47;;;;;;;3.10;1.70;;;;;;;17.97;100.00;97291.94;5138608;28;20358;-61
2023/07/20 00:23:13;;;;;;;8.68;1.73;;;;;;;17.90;100.00;97281.91;5138425;27;20069;-62
2023/07/20 00:25:39;;;;;;;2.17;1.85;;;;;;;17.88;100.00;97287.13;5138371;28;20051;-63
2023/07/20 00:28:05;;;;;;;3.00;1.45;;;;;;;17.90;100.00;97295.00;5138164;28;20413;-62
2023/07/20 00:30:31;;;;;;;4.90;1.70;;;;;;;17.81;100.00;97298.50;5138528;27;20142;-63
2023/07/20 00:32:57;;;;;;;5.13;2.05;;;;;;;17.80;100.00;97270.03;5138142;28;20141;-63
2023/07/20 00:35:23;;;;;;;4.20;1.65;;;;;;;17.90;100.00;97283.91;5138514;28;20050;-64
2023/07/20 00:37:49;;;;;;;2.63;1.55;;;;;;;17.82;100.00;97280.66;5137962;27;20412;-63
2023/07/20 00:40:15;;;;;;;3.88;1.73;;;;;;;17.78;100.00;97294.66;5138443;28;20114;-62
2023/07/20 00:42:41;;;;;;;5.60;2.08;;;;;;;17.77;100.00;97282.03;5137940;28;20496;-60
2023/07/20 00:45:08;;;;;;;2.38;1.73;;;;;;;17.66;100.00;97287.22;5136753;27;20484;-61
2023/07/20 00:47:34;;;;;;;4.18;1.65;;;;;;;17.79;100.00;97281.56;5138116;27;20070;-64
2023/07/20 00:50:00;;;;;;;3.50;1.88;;;;;;;17.67;100.00;97279.69;5138045;28;20051;-63
2023/07/20 00:52:27;;;;;;;1.90;1.35;;;;;;;17.72;100.00;97279.81;5138015;27;20055;-60
2023/07/20 00:54:56;;;;;;;2.83;1.58;;;;;;;17.72;100.00;97279.06;5137885;27;20053;-62
2023/07/20 00:57:24;;;;;;;3.17;2.10;;;;;;;17.72;100.00;97276.28;5138077;28;20141;-63
2023/07/20 00:59:51;;;;;;;3.65;1.65;;;;;;;17.30;100.00;97262.94;5137666;28;20484;-63
2023/07/20 01:02:16;;;;;;;5.30;1.60;;;;;;;17.57;100.00;97282.41;5138115;28;20390;-63
2023/07/20 01:04:42;;;;;;;3.90;1.50;;;;;;;17.32;100.00;97277.84;5137645;28;20047;-63
2023/07/20 01:07:17;;;;;;;3.10;1.73;;;;;;;17.65;100.00;97277.34;5137925;27;20054;-64
2023/07/20 01:09:49;;;;;;;2.95;1.45;;;;;;;17.57;100.00;97278.88;5137799;28;20138;-64
2023/07/20 01:12:23;;;;;;;4.68;1.80;;;;;;;17.60;100.00;97272.44;5137662;28;20083;-62
2023/07/20 01:14:49;;;;;;;3.00;1.70;;;;;;;17.62;100.00;97272.72;5137801;28;20429;-63
2023/07/20 01:17:15;;;;;;;3.15;1.33;;;;;;;17.60;100.00;97264.88;5137562;28;20332;-61
2023/07/20 01:19:41;;;;;;;3.35;1.52;;;;;;;17.51;100.00;97258.53;5137747;27;20070;-62
2023/07/20 01:22:19;;;;;;;1.75;1.40;;;;;;;17.49;100.00;97258.97;5137324;28;20420;-61
2023/07/20 01:25:11;;;;;;;3.88;1.73;;;;;;;17.41;100.00;97266.06;5137759;28;20138;-62
2023/07/20 01:28:14;;;;;;;2.92;1.50;;;;;;;17.35;100.00;97263.09;5137206;28;20491;-61
2023/07/20 01:30:59;;;;;;;3.55;1.80;;;;;;;17.34;100.00;97261.56;5136531;27;20058;-61
2023/07/20 01:33:28;;;;;;;1.95;1.42;;;;;;;17.25;100.00;97263.53;5137616;28;20043;-64
2023/07/20 01:35:56;;;;;;;7.47;2.08;;;;;;;17.34;100.00;97272.66;5137273;28;20208;-64
2023/07/20 01:38:24;;;;;;;2.55;1.80;;;;;;;17.34;100.00;97274.66;5137545;28;20137;-64
2023/07/20 01:40:51;;;;;;;2.13;1.60;;;;;;;17.27;100.00;97275.69;5137158;28;20141;-61
2023/07/20 01:43:18;;;;;;;1.95;1.50;;;;;;;17.26;100.00;97290.78;5137600;27;20043;-62
2023/07/20 01:45:44;;;;;;;1.63;1.52;;;;;;;17.23;100.00;97308.31;5137058;28;20055;-60
2023/07/20 01:48:10;;;;;;;4.35;2.15;;;;;;;17.27;100.00;97286.78;5137295;28;20093;-62
2023/07/20 01:50:37;;;;;;;1.88;1.63;;;;;;;17.20;100.00;97291.84;5137217;28;20051;-62
2023/07/20 01:53:03;;;;;;;14.77;1.92;;;;;;;17.22;100.00;97295.66;5137213;28;20043;-61
2023/07/20 01:55:29;;;;;;;2.78;1.80;;;;;;;17.24;100.00;97286.91;5137832;27;20051;-60
2023/07/20 01:57:55;;;;;;;4.03;1.65;;;;;;;17.15;100.00;97304.25;5140698;28;20085;-62
2023/07/20 02:00:23;;;;;;;6.32;2.20;;;;;;;17.22;100.00;97300.44;5140825;28;20460;-61
2023/07/20 02:02:50;;;;;;;2.50;1.83;;;;;;;17.15;100.00;97304.25;5140610;28;20142;-61
2023/07/20 02:05:16;;;;;;;4.88;1.80;;;;;;;17.12;100.00;97344.69;5140321;27;20055;-63
2023/07/20 02:07:42;;;;;;;2.85;1.40;;;;;;;17.09;100.00;97345.63;5140409;27;20133;-62
2023/07/20 02:10:09;;;;;;;2.00;1.52;;;;;;;17.09;100.00;97361.44;5140787;28;20047;-63
2023/07/20 02:12:35;;;;;;;3.20;1.60;;;;;;;17.18;100.00;97340.09;5140148;27;20051;-63
2023/07/20 02:15:02;;;;;;;4.75;1.63;;;;;;;17.24;100.00;97340.31;5140582;27;20080;-61
2023/07/20 02:17:27;;;;;;;1.92;1.55;;;;;;;17.20;100.00;97339.66;5140544;28;20067;-60
2023/07/20 02:19:54;;;;;;;3.05;1.90;;;;;;;17.18;100.00;97340.09;5140223;28;20454;-61
2023/07/20 02:22:20;;;;;;;2.05;1.40;;;;;;;17.16;100.00;97322.44;5140322;27;20400;-62
2023/07/20 02:24:47;;;;;;;2.15;1.50;;;;;;;17.19;100.00;97324.25;5140140;28;20043;-63
2023/07/20 02:27:13;;;;;;;2.58;1.90;;;;;;;17.22;100.00;97317.06;5140504;27;20082;-63
2023/07/20 02:29:41;;;;;;;3.33;1.58;;;;;;;17.10;100.00;97355.47;5140213;28;20047;-63
2023/07/20 02:32:08;;;;;;;1.40;1.30;;;;;;;17.13;100.00;97371.16;5140279;28;20445;-63
2023/07/20 02:34:34;;;;;;;2.35;1.30;;;;;;;17.15;100.00;97379.00;5140044;27;20134;-64
2023/07/20 02:37:00;;;;;;;7.47;1.80;;;;;;;17.19;100.00;97390.72;5140331;27;20107;-63
2023/07/20 02:39:27;;;;;;;4.00;1.52;;;;;;;17.26;100.00;97384.13;5139931;28;20047;-63
2023/07/20 02:41:54;;;;;;;3.05;1.75;;;;;;;17.28;100.00;97354.00;5140410;27;20398;-62
2023/07/20 02:44:20;;;;;;;3.00;1.63;;;;;;;17.26;100.00;97323.22;5140133;27;20393;-63
2023/07/20 02:46:46;;;;;;;5.40;1.75;;;;;;;17.24;100.00;97337.53;5139992;28;20086;-61
2023/07/20 02:49:12;;;;;;;4.15;2.22;;;;;;;17.26;100.00;97312.94;5139892;27;20401;-62
2023/07/20 02:51:38;;;;;;;3.08;1.60;;;;;;;17.08;100.00;97359.91;5139815;28;20058;-63
2023/07/20 02:54:04;;;;;;;2.38;1.38;;;;;;;17.22;100.00;97384.28;5140051;28;20123;-63
2023/07/20 02:56:29;;;;;;;2.10;1.90;;;;;;;17.27;100.00;97358.78;5139661;28;20054;-62
2023/07/20 02:58:57;;;;;;;1.35;1.25;;;;;;;17.23;100.00;97346.28;5139977;27;20057;-61
2023/07/20 03:01:23;;;;;;;2.10;1.40;;;;;;;17.33;100.00;97314.66;5139703;28;20055;-63
2023/07/20 03:03:49;;;;;;;1.42;1.20;;;;;;;17.41;100.00;97313.91;5140056;28;20047;-63
2023/07/20 03:06:16;;;;;;;6.30;1.40;;;;;;;17.41;100.00;97316.69;5139518;27;20051;-63
2023/07/20 03:08:47;;;;;;;3.13;1.67;;;;;;;17.45;100.00;97293.59;5139062;27;20133;-64
2023/07/20 03:11:13;;;;;;;3.33;1.58;;;;;;;17.41;100.00;97310.38;5139667;28;20146;-64
2023/07/20 03:13:39;;;;;;;4.85;2.10;;;;;;;17.45;100.00;97297.16;5139614;28;20138;-61
2023/07/20 03:16:05;;;;;;;2.30;1.63;;;;;;;17.50;100.00;97295.78;5139664;28;20061;-61
2023/07/20 03:18:31;;;;;;;2.85;1.50;;;;;;;17.55;100.00;97290.41;5139536;28;20332;-61
2023/07/20 03:20:57;;;;;;;6.55;2.10;;;;;;;17.37;100.00;97291.13;5139582;28;20051;-61
2023/07/20 03:23:23;;;;;;;2.92;2.00;;;;;;;17.63;100.00;97282.59;5139203;27;20057;-61
2023/07/20 03:25:49;;;;;;;4.88;1.55;;;;;;;17.59;100.00;97293.81;5139626;28;20080;-62
2023/07/20 03:28:15;;;;;;;2.13;1.50;;;;;;;17.50;100.00;97288.25;5139267;28;20142;-63
2023/07/20 03:30:41;;;;;;;2.50;1.80;;;;;;;17.65;100.00;97286.44;5139537;28;20084;-61
2023/07/20 03:33:07;;;;;;;1.90;1.40;;;;;;;17.77;100.00;97282.03;5139207;28;20130;-61
2023/07/20 03:35:33;;;;;;;5.85;1.73;;;;;;;17.76;100.00;97276.91;5139466;28;20440;-61
2023/07/20 03:37:59;;;;;;;3.15;2.00;;;;;;;17.75;100.00;97276.13;5139019;27;20137;-61
2023/07/20 03:40:25;;;;;;;2.15;1.30;;;;;;;17.76;100.00;97282.44;5139451;28;20089;-60
2023/07/20 03:42:51;;;;;;;2.55;1.20;;;;;;;17.67;100.00;97274.13;5139215;28;20334;-61
2023/07/20 03:45:17;;;;;;;2.63;1.63;;;;;;;17.76;100.00;97272.19;5139057;28;20146;-61
2023/07/20 03:47:44;;;;;;;2.20;1.63;;;;;;;17.83;100.00;97282.22;5139189;27;20047;-63
2023/07/20 03:50:11;;;;;;;2.78;1.60;;;;;;;17.81;100.00;97279.88;5138969;28;20075;-61
2023/07/20 03:52:37;;;;;;;3.63;1.70;;;;;;;17.78;100.00;97280.78;5139021;27;20207;-61
2023/07/20 03:55:03;;;;;;;1.88;1.73;;;;;;;17.84;100.00;97278.97;5138962;28;20059;-62
2023/07/20 03:57:32;;;;;;;2.85;1.95;;;;;;;17.88;100.00;97281.59;5139108;28;20074;-60
2023/07/20 03:59:58;;;;;;;3.97;1.33;;;;;;;17.98;100.00;97276.81;5138784;28;20115;-63
2023/07/20 04:02:24;;;;;;;2.17;1.40;;;;;;;18.08;100.00;97275.59;5138953;27;20412;-64
2023/07/20 04:04:50;;;;;;;3.58;1.52;;;;;;;18.13;100.00;97277.78;5138572;28;20086;-63
2023/07/20 04:07:16;;;;;;;2.67;1.70;;;;;;;18.14;100.00;97270.22;5138605;27;20189;-61
2023/07/20 04:09:42;;;;;;;2.13;1.50;;;;;;;18.23;100.00;97270.22;5138420;28;20061;-61
2023/07/20 04:12:08;;;;;;;3.33;1.55;;;;;;;18.19;100.00;97280.69;5138228;27;20087;-62
2023/07/20 04:14:34;;;;;;;3.50;1.73;;;;;;;18.35;100.00;97286.69;5138726;28;20073;-64
2023/07/20 04:17:00;;;;;;;3.50;1.20;;;;;;;18.49;100.00;97293.66;5138588;27;20133;-64
2023/07/20 04:19:26;;;;;;;7.55;1.98;;;;;;;18.56;100.00;97303.66;5138506;27;20058;-62
2023/07/20 04:21:52;;;;;;;5.00;1.60;;;;;;;18.55;100.00;97311.19;5138439;28;20051;-61
2023/07/20 04:24:19;;;;;;;1.65;1.55;;;;;;;18.67;100.00;97281.75;5138465;28;20066;-61
2023/07/20 04:26:44;;;;;;;2.85;1.83;;;;;;;18.81;100.00;97300.56;5138154;28;20435;-61
2023/07/20 04:29:10;;;;;;;2.85;1.35;;;;;;;18.87;100.00;97342.38;5138473;28;20133;-60
2023/07/20 04:31:36;;;;;;;2.70;1.70;;;;;;;18.68;100.00;97324.91;5138101;28;20141;-61
2023/07/20 04:34:02;;;;;;;4.97;2.30;;;;;;;18.57;100.00;97330.19;5138550;27;20058;-62
2023/07/20 04:36:28;;;;;;;1.92;1.73;;;;;;;18.23;100.00;97284.09;5137875;27;20079;-63
2023/07/20 04:38:54;;;;;;;3.22;1.90;;;;;;;18.10;100.00;97337.69;5138545;27;20096;-63
2023/07/20 04:41:20;;;;;;;2.15;1.90;;;;;;;17.91;100.00;97562.66;5138270;28;20062;-63
2023/07/20 04:43:47;;;;;;;3.95;1.90;;;;;;;17.72;100.00;97672.59;5138143;28;20078;-63
2023/07/20 04:46:13;;;;;;;7.65;2.13;;;;;;;17.54;100.00;97940.00;5138026;28;20138;-61
2023/07/20 04:48:40;;;;;;;4.32;2.20;;;;;;;17.57;100.00;98135.09;5137629;28;20123;-62
2023/07/20 04:51:06;;;;;;;3.90;2.10;;;;;;;17.47;100.00;98317.03;5138003;28;20047;-60
2023/07/20 04:53:32;;;;;;;6.07;2.08;;;;;;;17.40;100.00;98331.81;5137697;28;20047;-61
2023/07/20 04:55:58;;;;;;;2.15;1.77;;;;;;;17.35;100.00;98373.09;5138064;28;20139;-62
2023/07/20 04:58:25;;;;;;;9.52;5.95;;;;;;;17.28;100.00;98393.44;5137628;27;20046;-63
2023/07/20 05:00:51;;;;;;;10.27;3.33;;;;;;;17.29;100.00;98422.69;5137947;28;20053;-63
2023/07/20 05:03:17;;;;;;;11.80;2.30;;;;;;;17.31;100.00;98449.97;5138303;27;20110;-67
2023/07/20 05:05:43;;;;;;;5.70;2.38;;;;;;;17.40;100.00;98414.94;5138012;28;20111;-54
2023/07/20 05:08:09;;;;;;;5.13;2.20;;;;;;;17.32;100.00;98421.84;5137266;27;20417;-55
2023/07/20 05:10:35;;;;;;;4.25;2.42;;;;;;;17.37;100.00;98479.53;5137464;28;20066;-64
2023/07/20 05:13:05;;;;;;;3.05;2.08;;;;;;;17.45;100.00;98507.84;5137465;27;20075;-65
2023/07/20 05:15:34;;;;;;;10.30;3.67;;;;;;;17.65;100.00;98543.88;5137095;28;20055;-60
2023/07/20 05:18:00;;;;;;;7.55;2.50;;;;;;;17.74;100.00;98544.09;5137443;28;20149;-64
2023/07/20 05:20:26;;;;;;;9.48;4.80;;;;;;;17.79;100.00;98534.50;5137381;28;20047;-57
2023/07/20 05:22:52;;;;;;;5.40;4.10;;;;;;;17.81;100.00;98555.06;5137426;28;20055;-54
2023/07/20 05:25:18;;;;;;;3.70;2.30;;;;;;;17.98;100.00;98566.19;5137297;28;20047;-57
2023/07/20 05:27:47;;;;;;;4.15;2.75;;;;;;;18.08;100.00;98479.97;5137102;28;20191;-62
2023/07/20 05:30:13;;;;;;;5.57;2.08;;;;;;;18.23;100.00;98355.59;5136415;27;20051;-62
2023/07/20 05:50:09;;;;;;;2.22;1.55;;;;;;;19.34;100.00;97343.03;5116203;28;20074;-54
2023/07/20 05:52:35;;;;;;;3.90;1.75;;;;;;;19.33;100.00;97310.94;5116022;28;20051;-59
2023/07/20 05:55:01;;;;;;;3.65;1.88;;;;;;;19.36;100.00;97294.09;5116361;28;20052;-60
2023/07/20 05:57:27;;;;;;;4.38;2.17;;;;;;;19.42;100.00;97283.84;5116197;28;20062;-64
2023/07/20 05:59:53;;;;;;;6.90;2.10;;;;;;;19.46;100.00;97283.69;5115997;28;20070;-62
2023/07/20 06:02:21;;;;;;;6.97;2.08;;;;;;;19.66;100.00;97310.94;5115976;28;20058;-58
2023/07/20 06:04:47;;;;;;;3.38;2.00;;;;;;;19.62;100.00;97272.19;5115894;28;20058;-63
2023/07/20 06:07:13;;;;;;;3.47;1.85;;;;;;;19.79;100.00;97271.81;5116137;28;20043;-63
2023/07/20 06:09:39;;;;;;;4.00;2.13;;;;;;;20.14;100.00;97260.91;5115895;28;20134;-63
2023/07/20 06:12:07;;;;;;;4.13;2.15;;;;;;;20.47;100.00;97266.38;5116036;28;20146;-57
2023/07/20 06:14:33;;;;;;;5.53;2.30;;;;;;;21.43;100.00;97298.69;5115827;28;20047;-56
2023/07/20 06:16:59;;;;;;;9.15;2.75;;;;;;;22.27;100.00;97389.94;5115938;28;20054;-56
2023/07/20 06:19:26;;;;;;;6.55;2.70;;;;;;;22.90;100.00;97659.72;5115498;28;20075;-63
2023/07/20 06:21:52;;;;;;;4.70;2.35;;;;;;;22.61;100.00;97582.31;5116260;28;20051;-56
2023/07/20 06:24:19;;;;;;;3.72;1.65;;;;;;;22.63;100.00;97663.63;5115941;28;20116;-62
2023/07/20 06:26:45;;;;;;;3.30;1.90;;;;;;;22.35;100.00;97616.44;5116393;28;20139;-62
2023/07/20 06:29:11;;;;;;;3.10;1.70;;;;;;;22.18;100.00;97690.75;5115760;28;20051;-59
2023/07/20 06:31:38;;;;;;;3.55;2.78;;;;;;;22.56;100.00;97692.69;5115884;28;20057;-61
2023/07/20 06:34:04;;;;;;;2.58;1.90;;;;;;;23.45;100.00;97752.03;5115789;28;20142;-58
2023/07/20 06:36:30;;;;;;;1.88;1.73;;;;;;;23.82;100.00;97848.72;5116010;28;20051;-64
2023/07/20 06:38:56;;;;;;;5.82;2.08;;;;;;;24.10;100.00;97888.34;5115728;28;20120;-61
2023/07/20 06:41:23;;;;;;;5.20;2.20;;;;;;;24.67;100.00;97903.88;5115804;28;20085;-58
2023/07/20 06:43:49;;;;;;;5.47;2.05;;;;;;;24.57;100.00;97923.63;5118439;28;20190;-57
2023/07/20 06:46:15;;;;;;;4.10;1.85;;;;;;;25.10;100.00;97902.06;5119206;28;20139;-61
2023/07/20 06:48:41;;;;;;;4.75;2.42;;;;;;;26.09;100.00;97933.56;5119270;28;20151;-61
2023/07/20 06:51:07;;;;;;;3.45;2.10;;;;;;;26.34;100.00;97965.63;5119056;28;20052;-62
2023/07/20 06:53:32;;;;;;;6.07;2.28;;;;;;;26.25;100.00;97979.88;5119384;28;20051;-56
2023/07/20 06:55:58;;;;;;;3.35;2.30;;;;;;;26.23;100.00;97977.56;5118850;28;20047;-54
2023/07/20 06:58:25;;;;;;;4.13;2.40;;;;;;;26.34;100.00;97973.28;5119221;28;20058;-56
2023/07/20 07:00:52;;;;;;;4.97;2.50;;;;;;;26.93;100.00;97972.63;5118924;28;20048;-62
2023/07/20 07:03:18;;;;;;;2.28;2.00;;;;;;;26.78;94.60;98002.94;5118680;28;20425;-63
2023/07/20 07:05:45;;;;;;;3.63;2.58;;;;;;;26.45;98.27;97999.41;5119005;28;20058;-59
2023/07/20 07:08:11;;;;;;;4.05;2.38;;;;;;;26.72;100.00;97977.59;5118593;28;20051;-57
2023/07/20 07:10:37;;;;;;;4.90;2.63;;;;;;;26.78;100.00;97988.91;5118853;28;20044;-55
2023/07/20 07:13:04;;;;;;;4.82;2.38;;;;;;;27.26;94.33;97985.25;5118952;28;20332;-59
2023/07/20 07:15:30;;;;;;;6.20;2.05;;;;;;;27.67;92.50;98006.09;5119155;28;20092;-66
2023/07/20 07:17:57;;;;;;;5.47;2.25;;;;;;;27.79;88.15;98014.56;5119167;28;20134;-63
2023/07/20 07:20:23;;;;;;;3.30;1.95;;;;;;;28.24;88.74;98014.59;5119030;28;20198;-66
2023/07/20 07:22:51;;;;;;;3.28;1.80;;;;;;;28.46;86.82;98019.44;5118834;28;20051;-64
2023/07/20 07:25:18;;;;;;;3.40;2.17;;;;;;;28.70;83.36;98016.09;5118950;28;20075;-57
2023/07/20 07:27:44;;;;;;;4.57;2.53;;;;;;;27.16;87.59;98008.00;5118180;28;20055;-62
2023/07/20 07:30:11;;;;;;;7.00;2.47;;;;;;;27.43;91.50;98012.19;5118414;28;20061;-58
2023/07/20 07:32:37;;;;;;;5.13;2.25;;;;;;;26.77;92.54;98013.44;5118453;28;20055;-58
2023/07/20 07:35:04;;;;;;;5.00;3.20;;;;;;;26.14;100.00;98008.66;5118310;28;20056;-58
2023/07/20 07:37:30;;;;;;;4.32;2.40;;;;;;;25.97;100.00;97988.09;5118458;28;20079;-56
2023/07/20 07:39:57;;;;;;;3.55;2.40;;;;;;;25.64;100.00;97980.91;5117954;28;20294;-52
2023/07/20 07:42:23;;;;;;;3.63;2.55;;;;;;;25.38;100.00;97977.31;5118278;28;20145;-56
2023/07/20 07:44:49;;;;;;;3.80;2.20;;;;;;;24.94;100.00;97964.31;5118032;28;20051;-58
2023/07/20 07:47:16;;;;;;;3.45;2.33;;;;;;;25.69;100.00;97974.56;5118277;28;20043;-58
2023/07/20 07:49:43;;;;;;;2.97;2.45;;;;;;;25.88;100.00;97975.00;5117995;28;20134;-62
2023/07/20 07:52:09;;;;;;;4.90;2.60;;;;;;;25.49;100.00;97967.00;5118391;28;20074;-63
2023/07/20 07:54:37;;;;;;;6.32;2.50;;;;;;;25.14;100.00;97960.75;5117314;28;20055;-59
2023/07/20 07:57:03;;;;;;;3.45;2.20;;;;;;;25.80;100.00;97982.34;5117083;28;20047;-59
2023/07/20 07:59:31;;;;;;;5.10;2.25;;;;;;;25.54;100.00;97973.91;5117763;28;20347;-60
2023/07/20 08:01:58;;;;;;;6.38;2.00;;;;;;;25.04;100.00;97948.88;5117536;28;20044;-63
2023/07/20 08:04:24;;;;;;;5.25;2.88;;;;;;;24.92;100.00;97969.63;5117797;28;20051;-63
2023/07/20 08:06:51;;;;;;;8.38;3.90;;;;;;;24.27;100.00;97936.94;5117572;28;20142;-62
2023/07/20 08:09:17;;;;;;;4.28;2.30;;;;;;;24.93;100.00;97909.53;5117685;28;20150;-60
2023/07/20 08:11:43;;;;;;;6.32;2.65;;;;;;;24.98;100.00;97953.66;5117331;28;20417;-58
2023/07/20 08:14:08;;;;;;;3.58;2.58;;;;;;;24.62;100.00;97955.75;5117592;28;20058;-57
2023/07/20 08:16:34;;;;;;;5.45;2.60;;;;;;;24.24;100.00;97934.34;5117377;28;20368;-62
2023/07/20 08:19:00;;;;;;;5.95;2.00;;;;;;;23.92;100.00;97917.31;5117821;28;20108;-62
2023/07/20 08:21:27;;;;;;;6.65;2.70;;;;;;;23.86;100.00;97905.28;5099694;28;20329;-62
2023/07/20 08:23:56;;;;;;;4.70;2.80;;;;;;;23.88;100.00;97897.16;5117919;28;20062;-61
2023/07/20 08:26:24;;;;;;;4.68;2.95;;;;;;;23.75;100.00;97869.50;5117511;28;20116;-62
2023/07/20 08:28:50;;;;;;;5.70;3.05;;;;;;;23.99;100.00;97894.53;5117436;28;20052;-63
2023/07/20 08:31:16;;;;;;;8.05;3.10;;;;;;;24.53;100.00;97886.63;5117566;28;20150;-63
2023/07/20 08:33:42;;;;;;;7.28;2.75;;;;;;;25.08;100.00;97927.00;5099522;28;20299;-63
2023/07/20 08:36:08;;;;;;;4.63;2.60;;;;;;;25.04;100.00;97934.88;5117194;28;20083;-63
2023/07/20 08:38:34;;;;;;;4.35;2.67;;;;;;;24.82;100.00;97932.56;5117245;28;20051;-63
2023/07/20 08:41:01;;;;;;;2.75;2.17;;;;;;;25.37;100.00;97944.94;5117592;28;20047;-64
2023/07/20 08:43:28;;;;;;;2.53;1.70;;;;;;;25.17;100.00;97957.72;5117130;28;20047;-62
2023/07/20 08:45:55;;;;;;;8.85;2.35;;;;;;;24.78;100.00;97943.22;5117535;28;20146;-61
2023/07/20 08:48:21;;;;;;;4.72;2.67;;;;;;;24.00;100.00;97934.50;5117094;28;20051;-62
2023/07/20 08:50:49;;;;;;;5.10;2.40;;;;;;;23.71;100.00;97917.25;5117496;28;20384;-63
2023/07/20 08:53:16;;;;;;;2.67;1.80;;;;;;;23.62;100.00;97899.78;5116638;28;20100;-63
2023/07/20 08:55:44;;;;;;;6.82;1.88;;;;;;;23.37;100.00;97892.78;5099280;28;20043;-64
2023/07/20 08:58:14;;;;;;;2.65;1.63;;;;;;;23.50;100.00;97876.47;5117012;28;20083;-62
2023/07/20 09:00:41;;;;;;;5.05;2.88;;;;;;;24.02;100.00;97884.38;5116984;28;20052;-63
2023/07/20 09:03:08;;;;;;;7.75;1.90;;;;;;;23.91;100.00;97927.75;5117213;28;20052;-63
2023/07/20 09:05:35;;;;;;;3.63;1.90;;;;;;;23.78;100.00;97916.09;5115748;28;20341;-63
2023/07/20 09:08:02;;;;;;;2.78;1.90;;;;;;;23.92;100.00;97878.91;5117271;28;20126;-62
2023/07/20 09:10:30;;;;;;;19.92;2.55;;;;;;;23.81;100.00;97912.31;5116976;28;20051;-62
2023/07/20 09:12:56;;;;;;;9.50;1.83;;;;;;;23.90;100.00;97915.03;5116955;28;20439;-61
2023/07/20 09:15:23;;;;;;;5.95;2.20;;;;;;;23.37;100.00;97929.88;5116841;28;20382;-63
2023/07/20 09:17:50;;;;;;;2.47;1.88;;;;;;;23.70;100.00;97914.97;5117234;28;20417;-62
2023/07/20 09:20:18;;;;;;;6.25;3.65;;;;;;;23.70;100.00;97904.53;5116514;28;20139;-61
2023/07/20 09:22:44;;;;;;;1.50;1.40;;;;;;;23.82;100.00;97913.88;5116825;28;20055;-64
2023/07/20 09:25:12;;;;;;;3.90;2.13;;;;;;;23.83;100.00;97920.25;5116852;28;20138;-63
2023/07/20 09:27:39;;;;;;;5.43;1.92;;;;;;;23.81;100.00;97903.16;5116593;28;20139;-64
2023/07/20 09:30:08;;;;;;;2.33;1.60;;;;;;;23.66;100.00;97914.38;5116946;28;20138;-63
2023/07/20 09:32:40;;;;;;;3.03;1.50;;;;;;;23.98;100.00;97920.22;5116468;28;20064;-61
2023/07/20 09:35:14;;;;;;;2.17;1.70;;;;;;;24.22;100.00;97932.00;5117001;28;20043;-62
2023/07/20 09:37:40;;;;;;;9.90;1.90;;;;;;;24.52;100.00;97924.31;5116471;28;20112;-64
2023/07/20 09:40:08;;;;;;;3.25;1.90;;;;;;;24.63;100.00;97924.47;5116772;28;20355;-64
2023/07/20 09:42:37;;;;;;;2.78;1.55;;;;;;;25.00;100.00;97949.09;5116320;28;20428;-64
2023/07/20 09:45:07;;;;;;;1.85;1.10;;;;;;;25.34;100.00;97955.09;5116835;28;20141;-62
2023/07/20 09:47:36;;;;;;;2.70;1.77;;;;;;;25.96;92.13;97966.91;5116681;28;20130;-61
2023/07/20 09:50:04;;;;;;;3.75;2.22;;;;;;;26.09;87.77;97974.91;5116398;28;20321;-64
2023/07/20 09:52:30;;;;;;;2.42;1.90;;;;;;;26.17;82.27;97984.41;5116429;28;20141;-63
2023/07/20 09:54:57;;;;;;;4.45;1.60;;;;;;;26.01;82.76;97989.41;5116012;28;20409;-60
2023/07/20 09:57:23;;;;;;;4.05;1.50;;;;;;;25.61;87.17;97969.88;5116211;28;20047;-61
2023/07/20 09:59:49;;;;;;;2.80;1.42;;;;;;;26.01;86.04;97986.59;5115992;28;20050;-63
2023/07/20 10:02:21;;;;;;;2.60;1.90;;;;;;;25.98;89.12;97979.16;5116405;28;20052;-64
2023/07/20 10:04:49;;;;;;;5.78;1.52;;;;;;;25.81;90.49;97976.22;5116036;28;20047;-65
2023/07/20 10:07:17;;;;;;;3.20;1.75;;;;;;;25.47;91.83;97969.50;5116233;28;20134;-60
2023/07/20 10:09:45;;;;;;;8.68;2.55;;;;;;;25.13;99.08;97962.03;5115722;28;20051;-64
2023/07/20 10:12:11;;;;;;;2.53;1.75;;;;;;;24.43;100.00;97952.47;5116145;28;20138;-64
2023/07/20 10:14:44;;;;;;;2.42;2.15;;;;;;;24.46;100.00;97951.50;5116142;28;20105;-60
2023/07/20 10:17:13;;;;;;;1.55;1.45;;;;;;;24.15;100.00;97950.00;5117620;28;20051;-60
2023/07/20 10:19:44;;;;;;;2.03;1.80;;;;;;;24.50;100.00;97952.06;5119912;28;20134;-60
2023/07/20 10:22:14;;;;;;;3.20;1.40;;;;;;;24.31;100.00;97959.13;5119462;28;20051;-62
2023/07/20 10:24:45;;;;;;;4.05;1.65;;;;;;;24.36;100.00;97944.44;5119641;28;20146;-64
2023/07/20 10:27:11;;;;;;;4.78;1.70;;;;;;;24.25;100.00;97953.44;5119184;28;20058;-61
2023/07/20 10:29:38;;;;;;;3.40;1.55;;;;;;;24.18;100.00;97957.41;5119543;28;20056;-61
2023/07/20 10:32:05;;;;;;;4.90;2.17;;;;;;;24.13;100.00;97955.31;5118938;28;20061;-63
2023/07/20 10:34:32;;;;;;;4.72;1.85;;;;;;;23.93;100.00;97942.03;5119678;28;20079;-63
2023/07/20 10:36:59;;;;;;;3.17;2.08;;;;;;;23.94;100.00;97943.56;5119257;28;20048;-63
2023/07/20 10:39:27;;;;;;;1.60;1.50;;;;;;;24.15;100.00;97929.63;5119346;28;20120;-62
2023/07/20 10:42:01;;;;;;;1.40;1.30;;;;;;;24.17;100.00;97946.72;5119301;28;20116;-62
2023/07/20 10:44:28;;;;;;;6.25;1.75;;;;;;;24.27;100.00;97947.38;5118687;28;20055;-63
2023/07/20 10:46:59;;;;;;;2.75;2.00;;;;;;;24.15;100.00;97944.38;5118887;28;20051;-60
2023/07/20 10:49:26;;;;;;;2.80;1.70;;;;;;;24.53;100.00;97950.31;5118593;28;20193;-61
2023/07/20 10:51:57;;;;;;;1.45;1.35;;;;;;;24.17;100.00;97950.28;5119214;28;20047;-63
2023/07/20 10:54:49;;;;;;;3.17;1.80;;;;;;;24.37;100.00;97945.97;5118850;28;20346;-61
2023/07/20 10:57:29;;;;;;;2.13;1.80;;;;;;;24.37;100.00;97943.94;5118913;28;20070;-60
2023/07/20 11:00:12;;;;;;;7.75;2.70;;;;;;;24.42;100.00;97934.91;5118428;28;20355;-60
2023/07/20 11:02:49;;;;;;;2.70;1.77;;;;;;;24.43;100.00;97932.84;5108270;28;20424;-62
2023/07/20 11:05:37;;;;;;;2.15;1.50;;;;;;;24.08;100.00;97930.81;5119157;28;20043;-63
2023/07/20 11:08:09;;;;;;;4.22;1.50;;;;;;;23.93;100.00;97928.03;5118527;28;20048;-61
2023/07/20 11:10:35;;;;;;;1.60;1.20;;;;;;;24.42;100.00;97934.91;5118927;28;20058;-63
2023/07/20 11:13:23;;;;;;;5.57;1.90;;;;;;;24.11;100.00;97921.44;5118801;28;20329;-64
2023/07/20 11:16:02;;;;;;;2.97;1.73;;;;;;;24.23;100.00;97932.81;5118598;28;20044;-63
2023/07/20 11:18:29;;;;;;;5.07;1.50;;;;;;;24.23;100.00;97916.78;5118650;28;20449;-62
2023/07/20 11:20:55;;;;;;;3.72;1.90;;;;;;;24.48;100.00;97937.75;5118400;28;20059;-64
2023/07/20 11:23:21;;;;;;;3.10;1.35;;;;;;;24.37;100.00;97917.97;5118811;28;20051;-62
2023/07/20 11:25:47;;;;;;;2.63;1.70;;;;;;;24.40;100.00;97931.00;5118309;28;20335;-64
2023/07/20 11:28:13;;;;;;;4.35;1.55;;;;;;;24.48;100.00;97922.97;5117921;28;20050;-65
2023/07/20 11:30:40;;;;;;;6.95;2.35;;;;;;;24.60;100.00;97935.88;5118166;28;20169;-62
2023/07/20 11:33:08;;;;;;;2.10;1.77;;;;;;;24.44;100.00;97911.22;5117670;28;20047;-63
2023/07/20 11:35:36;;;;;;;4.45;1.45;;;;;;;24.30;100.00;97921.19;5118376;28;20076;-61
2023/07/20 11:38:02;;;;;;;1.90;1.30;;;;;;;24.02;100.00;97932.75;5118305;28;20092;-60
2023/07/20 11:40:28;;;;;;;2.13;1.25;;;;;;;24.27;100.00;97914.53;5118075;28;20134;-61
2023/07/20 11:42:55;;;;;;;4.50;1.83;;;;;;;24.27;100.00;97906.13;5117993;28;20108;-64
2023/07/20 11:45:21;;;;;;;3.83;1.65;;;;;;;24.07;100.00;97917.31;5118168;28;20477;-60